Time;durP1;ratioP1;P1;durP2;ratioP2;P2;SDS_P1;SDS_P2;PMS_P1;PMS_P2;Temp;Humidity;BMP_temperature;BMP_pressure;BME280_temperature;BME280_humidity;BME280_pressure;Samples;Min_cycle;Max_cycle;Signal;HPM_P1;HPM_P2
2023/07/06 00:01:21;;;;;;;;;;;14.90;99.90;;;;;;5062999;28;19959;-74
2023/07/06 00:03:48;;;;;;;;;;;14.80;99.90;;;;;;5062528;28;20230;-73
2023/07/06 00:06:16;;;;;;;;;;;14.80;99.90;;;;;;5063484;28;19928;-74
2023/07/06 00:08:55;;;;;;;;;;;14.80;99.90;;;;;;5062651;28;19920;-73
2023/07/06 00:11:22;;;;;;;;;;;14.80;99.90;;;;;;5063346;28;19959;-74
2023/07/06 00:13:48;;;;;;;;;;;14.80;99.90;;;;;;5063335;28;19921;-74
2023/07/06 00:16:16;;;;;;;;;;;14.70;99.90;;;;;;5063449;28;19979;-74
2023/07/06 00:18:45;;;;;;;;;;;14.60;99.90;;;;;;5062680;28;19984;-73
2023/07/06 00:21:11;;;;;;;;;;;14.60;99.90;;;;;;5063118;28;19920;-73
2023/07/06 00:23:43;;;;;;;;;;;14.60;99.90;;;;;;5063463;28;20116;-73
2023/07/06 00:26:11;;;;;;;;;;;14.50;99.90;;;;;;5063229;28;19959;-74
2023/07/06 00:28:42;;;;;;;;;;;14.60;99.90;;;;;;5062912;28;19927;-72
2023/07/06 00:31:20;;;;;;;;;;;14.50;99.90;;;;;;5062702;28;20208;-73
2023/07/06 00:33:47;;;;;;;;;;;14.50;99.90;;;;;;5063476;28;20254;-74
2023/07/06 00:36:14;;;;;;;;;;;14.40;99.90;;;;;;5063042;28;19983;-74
2023/07/06 00:38:40;;;;;;;;;;;14.40;99.90;;;;;;5063354;28;19921;-74
2023/07/06 00:41:17;;;;;;;;;;;14.30;99.90;;;;;;5062197;28;20220;-74
2023/07/06 00:43:52;;;;;;;;;;;14.30;99.90;;;;;;5059440;28;19921;-73
2023/07/06 00:46:19;;;;;;;;;;;14.30;99.90;;;;;;5059148;28;19947;-73
2023/07/06 00:48:47;;;;;;;;;;;14.30;99.90;;;;;;5063244;28;20008;-73
2023/07/06 00:51:16;;;;;;;;;;;14.20;99.90;;;;;;5062968;28;19983;-73
2023/07/06 00:53:44;;;;;;;;;;;14.20;99.90;;;;;;5064331;28;19920;-74
2023/07/06 00:56:13;;;;;;;;;;;14.10;99.90;;;;;;5066882;28;19927;-74
2023/07/06 00:58:41;;;;;;;;;;;14.10;99.90;;;;;;5066533;28;19921;-74
2023/07/06 01:01:10;;;;;;;;;;;14.00;99.90;;;;;;5066612;28;19924;-74
2023/07/06 01:03:44;;;;;;;;;;;14.00;99.90;;;;;;5066826;28;19921;-74
2023/07/06 01:06:12;;;;;;;;;;;14.00;99.90;;;;;;5066685;28;20125;-74
2023/07/06 01:08:39;;;;;;;;;;;14.00;99.90;;;;;;5066700;28;20196;-74
2023/07/06 01:11:08;;;;;;;;;;;13.90;99.90;;;;;;5066354;28;19956;-73
2023/07/06 01:13:34;;;;;;;;;;;13.80;99.90;;;;;;5066325;28;19956;-74
2023/07/06 01:16:05;;;;;;;;;;;13.80;99.90;;;;;;5066490;28;20156;-73
2023/07/06 01:18:45;;;;;;;;;;;13.70;99.90;;;;;;5065641;28;19952;-74
2023/07/06 01:21:14;;;;;;;;;;;13.60;99.90;;;;;;5066127;28;19992;-73
2023/07/06 01:23:53;;;;;;;;;;;13.60;99.90;;;;;;5066093;28;20212;-73
2023/07/06 01:26:28;;;;;;;;;;;13.40;99.90;;;;;;5066048;28;19921;-74
2023/07/06 01:29:21;;;;;;;;;;;13.40;99.90;;;;;;5064814;28;19988;-74
2023/07/06 01:31:51;;;;;;;;;;;13.40;99.90;;;;;;5065629;28;19987;-74
2023/07/06 01:34:21;;;;;;;;;;;13.40;99.90;;;;;;5066280;28;19987;-74
2023/07/06 01:36:50;;;;;;;;;;;13.40;99.90;;;;;;5065767;28;19944;-74
2023/07/06 01:39:17;;;;;;;;;;;13.40;99.90;;;;;;5066102;28;19921;-74
2023/07/06 01:41:45;;;;;;;;;;;13.40;99.90;;;;;;5065327;28;19921;-74
2023/07/06 01:44:13;;;;;;;;;;;13.50;99.90;;;;;;5065957;28;19966;-74
2023/07/06 01:46:41;;;;;;;;;;;13.50;99.90;;;;;;5065938;28;20143;-74
2023/07/06 01:49:10;;;;;;;;;;;13.50;99.90;;;;;;5065960;28;19995;-75
2023/07/06 01:51:42;;;;;;;;;;;13.50;99.90;;;;;;5065595;28;20128;-75
2023/07/06 01:54:14;;;;;;;;;;;13.50;99.90;;;;;;5065944;28;19920;-74
2023/07/06 01:56:50;;;;;;;;;;;13.50;99.90;;;;;;5065829;28;19935;-74
2023/07/06 01:59:19;;;;;;;;;;;13.50;99.90;;;;;;5065771;28;19980;-74
2023/07/06 02:01:48;;;;;;;;;;;13.50;99.90;;;;;;5065239;28;19991;-74
2023/07/06 02:04:20;;;;;;;;;;;13.50;99.90;;;;;;5065274;28;19927;-74
2023/07/06 02:06:47;;;;;;;;;;;13.50;99.90;;;;;;5065292;28;20362;-74
2023/07/06 02:09:14;;;;;;;;;;;13.50;99.90;;;;;;5065292;28;19920;-74
2023/07/06 02:11:41;;;;;;;;;;;13.60;99.90;;;;;;5065197;28;19927;-74
2023/07/06 02:14:08;;;;;;;;;;;13.60;99.90;;;;;;5065021;28;19921;-74
2023/07/06 02:16:34;;;;;;;;;;;13.60;99.90;;;;;;5065004;28;19921;-75
2023/07/06 02:19:03;;;;;;;;;;;13.60;99.90;;;;;;5065367;28;19921;-74
2023/07/06 02:21:32;;;;;;;;;;;13.60;99.90;;;;;;5064583;28;20208;-75
2023/07/06 02:23:59;;;;;;;;;;;13.60;99.90;;;;;;5065041;28;19928;-74
2023/07/06 02:26:26;;;;;;;;;;;13.50;99.90;;;;;;5065183;28;19921;-74
2023/07/06 02:28:53;;;;;;;;;;;13.50;99.90;;;;;;5065154;28;19962;-74
2023/07/06 02:31:20;;;;;;;;;;;13.50;99.90;;;;;;5064881;28;19963;-74
2023/07/06 02:33:46;;;;;;;;;;;13.40;99.90;;;;;;5065049;28;19956;-74
2023/07/06 02:36:13;;;;;;;;;;;13.50;99.90;;;;;;5064876;28;19928;-74
2023/07/06 02:38:42;;;;;;;;;;;13.40;99.90;;;;;;5064726;28;20224;-74
2023/07/06 02:41:08;;;;;;;;;;;13.40;99.90;;;;;;5064870;28;20090;-74
2023/07/06 02:43:35;;;;;;;;;;;13.40;99.90;;;;;;5064889;28;19991;-74
2023/07/06 02:46:03;;;;;;;;;;;13.40;99.90;;;;;;5064774;28;19983;-74
2023/07/06 02:48:30;;;;;;;;;;;13.40;99.90;;;;;;5064423;28;19943;-74
2023/07/06 02:50:57;;;;;;;;;;;13.40;99.90;;;;;;5064179;28;19983;-74
2023/07/06 02:53:24;;;;;;;;;;;13.40;99.90;;;;;;5064690;28;19975;-74
2023/07/06 02:55:52;;;;;;;;;;;13.40;99.90;;;;;;5064483;28;19963;-74
2023/07/06 02:58:19;;;;;;;;;;;13.30;99.90;;;;;;5064407;28;20116;-74
2023/07/06 03:00:46;;;;;;;;;;;13.30;99.90;;;;;;5063981;28;19920;-74
2023/07/06 03:03:14;;;;;;;;;;;13.20;99.90;;;;;;5064387;28;20200;-74
2023/07/06 03:05:43;;;;;;;;;;;13.10;99.90;;;;;;5064350;28;19921;-73
2023/07/06 03:08:10;;;;;;;;;;;13.10;99.90;;;;;;5064428;28;19984;-73
2023/07/06 03:10:38;;;;;;;;;;;13.10;99.90;;;;;;5064039;28;20165;-74
2023/07/06 03:13:06;;;;;;;;;;;13.10;99.90;;;;;;5059940;28;19920;-74
2023/07/06 03:15:33;;;;;;;;;;;13.00;99.90;;;;;;5043945;28;19929;-73
2023/07/06 03:18:00;;;;;;;;;;;13.00;99.90;;;;;;5044171;28;19921;-73
2023/07/06 03:20:26;;;;;;;;;;;13.00;99.90;;;;;;5043779;28;20209;-73
2023/07/06 03:22:54;;;;;;;;;;;13.00;99.90;;;;;;5043891;28;20217;-73
2023/07/06 03:25:22;;;;;;;;;;;13.00;99.90;;;;;;5050281;28;20208;-73
2023/07/06 03:27:48;;;;;;;;;;;13.00;99.90;;;;;;5063908;28;19963;-74
2023/07/06 03:30:20;;;;;;;;;;;13.00;99.90;;;;;;5063731;28;20001;-73
2023/07/06 03:32:46;;;;;;;;;;;12.90;99.90;;;;;;5064190;28;19920;-74
2023/07/06 03:35:14;;;;;;;;;;;12.90;99.90;;;;;;5063987;28;19928;-74
2023/07/06 03:37:42;;;;;;;;;;;12.90;99.90;;;;;;5064115;28;19928;-73
2023/07/06 03:40:10;;;;;;;;;;;12.90;99.90;;;;;;5063591;28;19921;-74
2023/07/06 03:42:39;;;;;;;;;;;12.90;99.90;;;;;;5063931;28;19925;-74
2023/07/06 03:45:06;;;;;;;;;;;12.80;99.90;;;;;;5063845;28;19925;-74
2023/07/06 03:47:35;;;;;;;;;;;12.80;99.90;;;;;;5063839;28;19984;-74
2023/07/06 03:50:02;;;;;;;;;;;12.80;99.90;;;;;;5063227;28;19921;-74
2023/07/06 03:52:28;;;;;;;;;;;12.80;99.90;;;;;;5063689;28;19921;-74
2023/07/06 03:54:55;;;;;;;;;;;12.70;99.90;;;;;;5063733;28;19921;-74
2023/07/06 03:57:23;;;;;;;;;;;12.80;99.90;;;;;;5063410;28;19921;-74
2023/07/06 03:59:50;;;;;;;;;;;12.80;99.90;;;;;;5063808;28;19984;-73
2023/07/06 04:02:17;;;;;;;;;;;12.80;99.90;;;;;;5063585;28;19921;-74
2023/07/06 04:04:45;;;;;;;;;;;12.70;99.90;;;;;;5063516;28;20255;-74
2023/07/06 04:07:11;;;;;;;;;;;12.70;99.90;;;;;;5063963;28;19983;-73
2023/07/06 04:09:38;;;;;;;;;;;12.70;99.90;;;;;;5064188;28;19988;-74
2023/07/06 04:12:06;;;;;;;;;;;12.70;99.90;;;;;;5063529;28;19928;-73
2023/07/06 04:14:32;;;;;;;;;;;12.70;99.90;;;;;;5064008;28;19952;-73
2023/07/06 04:16:59;;;;;;;;;;;12.60;99.90;;;;;;5064073;28;19920;-74
2023/07/06 04:19:25;;;;;;;;;;;12.60;99.90;;;;;;5062781;28;19988;-74
2023/07/06 04:21:55;;;;;;;;;;;12.60;99.90;;;;;;5062913;28;19967;-74
2023/07/06 04:24:21;;;;;;;;;;;12.70;99.90;;;;;;5063551;28;20112;-74
2023/07/06 04:26:51;;;;;;;;;;;12.70;99.90;;;;;;5063624;28;19921;-74
2023/07/06 04:29:17;;;;;;;;;;;12.80;99.90;;;;;;5067449;28;19921;-74
2023/07/06 04:31:46;;;;;;;;;;;12.80;99.90;;;;;;5067084;28;19948;-74
2023/07/06 04:34:14;;;;;;;;;;;12.80;99.90;;;;;;5067296;28;19943;-74
2023/07/06 04:36:40;;;;;;;;;;;12.90;99.90;;;;;;5067162;28;19920;-74
2023/07/06 04:39:10;;;;;;;;;;;12.90;99.90;;;;;;5067050;28;19987;-74
2023/07/06 04:41:37;;;;;;;;;;;13.00;99.90;;;;;;5066750;28;19922;-74
2023/07/06 04:44:03;;;;;;;;;;;13.00;99.90;;;;;;5066961;28;19928;-73
2023/07/06 04:46:30;;;;;;;;;;;13.10;99.90;;;;;;5066586;28;19921;-73
2023/07/06 04:48:57;;;;;;;;;;;13.20;99.90;;;;;;5067017;28;19920;-73
2023/07/06 04:51:25;;;;;;;;;;;13.40;99.90;;;;;;5066380;28;19921;-72
2023/07/06 04:53:51;;;;;;;;;;;13.40;99.90;;;;;;5066785;28;19943;-73
2023/07/06 04:56:21;;;;;;;;;;;13.50;99.90;;;;;;5066290;28;19921;-73
2023/07/06 04:58:48;;;;;;;;;;;13.60;99.90;;;;;;5066406;28;19920;-73
2023/07/06 05:01:15;;;;;;;;;;;13.70;99.90;;;;;;5057954;28;19921;-74
2023/07/06 05:03:41;;;;;;;;;;;13.90;99.90;;;;;;5046497;28;19957;-73
2023/07/06 05:06:12;;;;;;;;;;;13.90;99.90;;;;;;5046655;28;19931;-73
2023/07/06 05:08:39;;;;;;;;;;;14.00;99.90;;;;;;5046369;28;19963;-73
2023/07/06 05:11:06;;;;;;;;;;;14.10;99.90;;;;;;5046405;28;19921;-73
2023/07/06 05:13:34;;;;;;;;;;;14.10;99.90;;;;;;5046567;28;19980;-73
2023/07/06 05:16:01;;;;;;;;;;;14.20;99.90;;;;;;5058462;28;19980;-74
2023/07/06 05:18:29;;;;;;;;;;;14.30;99.90;;;;;;5066458;28;19963;-74
2023/07/06 05:20:57;;;;;;;;;;;14.40;99.90;;;;;;5065994;28;19927;-73
2023/07/06 05:23:25;;;;;;;;;;;14.40;99.90;;;;;;5066488;28;19970;-74
2023/07/06 05:25:52;;;;;;;;;;;14.50;99.90;;;;;;5066457;28;19921;-75
2023/07/06 05:28:20;;;;;;;;;;;14.60;99.90;;;;;;5066530;28;19920;-74
2023/07/06 05:30:48;;;;;;;;;;;14.60;99.90;;;;;;5065867;28;19921;-74
2023/07/06 05:33:15;;;;;;;;;;;14.70;99.90;;;;;;5066310;28;19988;-72
2023/07/06 05:35:42;;;;;;;;;;;14.70;99.90;;;;;;5066134;28;19956;-73
2023/07/06 05:38:10;;;;;;;;;;;14.80;99.90;;;;;;5052772;28;19921;-73
2023/07/06 05:40:37;;;;;;;;;;;15.00;99.90;;;;;;5061548;28;20107;-74
2023/07/06 05:43:03;;;;;;;;;;;15.10;99.90;;;;;;5065763;28;19959;-72
2023/07/06 05:45:30;;;;;;;;;;;15.20;99.90;;;;;;5065360;28;19921;-74
2023/07/06 05:47:58;;;;;;;;;;;15.30;99.90;;;;;;5065869;28;19987;-73
2023/07/06 05:50:25;;;;;;;;;;;15.50;99.90;;;;;;5065653;28;19988;-73
2023/07/06 05:52:52;;;;;;;;;;;15.70;99.90;;;;;;5065764;28;19927;-73
2023/07/06 05:55:19;;;;;;;;;;;15.80;99.90;;;;;;5053075;28;20109;-73
2023/07/06 05:57:46;;;;;;;;;;;15.90;99.90;;;;;;5045464;28;19953;-73
2023/07/06 06:00:15;;;;;;;;;;;16.00;99.90;;;;;;5062295;28;19921;-73
2023/07/06 06:02:43;;;;;;;;;;;16.10;99.90;;;;;;5065447;28;19927;-73
2023/07/06 06:05:20;;;;;;;;;;;16.10;99.90;;;;;;5065156;28;19924;-73
2023/07/06 06:07:47;;;;;;;;;;;16.20;99.90;;;;;;5066753;28;19921;-72
2023/07/06 06:10:14;;;;;;;;;;;16.20;99.90;;;;;;5064872;28;19921;-73
2023/07/06 06:12:40;;;;;;;;;;;16.30;99.90;;;;;;5065215;28;19943;-73
2023/07/06 06:15:08;;;;;;;;;;;16.30;99.90;;;;;;5065158;28;19988;-73
2023/07/06 06:17:37;;;;;;;;;;;16.40;99.90;;;;;;5065234;28;19920;-72
2023/07/06 06:20:06;;;;;;;;;;;16.50;99.90;;;;;;5065015;28;19921;-73
2023/07/06 06:22:34;;;;;;;;;;;16.70;99.90;;;;;;5065305;28;19920;-73
2023/07/06 06:25:01;;;;;;;;;;;16.70;99.90;;;;;;5064900;28;19935;-74
2023/07/06 06:27:37;;;;;;;;;;;16.80;99.90;;;;;;5065672;28;19952;-73
2023/07/06 06:30:42;;;;;;;;;;;16.90;99.90;;;;;;5065632;28;20227;-76
2023/07/06 06:33:09;;;;;;;;;;;17.00;99.90;;;;;;5061750;28;19925;-72
2023/07/06 06:35:36;;;;;;;;;;;17.10;99.90;;;;;;5065049;28;19921;-73
2023/07/06 06:38:20;;;;;;;;;;;17.20;99.90;;;;;;5063394;28;19963;-76
2023/07/06 06:40:46;;;;;;;;;;;17.30;99.90;;;;;;5045168;28;19921;-75
2023/07/06 06:43:13;;;;;;;;;;;17.40;99.90;;;;;;5059344;28;19967;-73
2023/07/06 06:45:40;;;;;;;;;;;17.40;99.90;;;;;;5064288;28;20232;-74
2023/07/06 06:48:08;;;;;;;;;;;17.40;99.90;;;;;;5064823;28;19927;-73
2023/07/06 06:50:34;;;;;;;;;;;17.40;99.90;;;;;;5064197;28;19978;-72
2023/07/06 06:53:02;;;;;;;;;;;17.50;99.90;;;;;;5064651;28;19952;-73
2023/07/06 06:55:30;;;;;;;;;;;17.50;99.90;;;;;;5064834;28;20159;-73
2023/07/06 06:57:57;;;;;;;;;;;17.60;99.90;;;;;;5064406;28;19956;-72
2023/07/06 07:00:23;;;;;;;;;;;17.60;99.90;;;;;;5064512;28;19927;-72
2023/07/06 07:03:00;;;;;;;;;;;17.60;99.90;;;;;;5064352;28;19927;-74
2023/07/06 07:05:27;;;;;;;;;;;17.70;99.90;;;;;;5065010;28;19940;-72
2023/07/06 07:07:54;;;;;;;;;;;17.80;99.90;;;;;;5064270;28;19971;-73
2023/07/06 07:10:22;;;;;;;;;;;17.80;99.90;;;;;;5064055;28;20165;-73
2023/07/06 07:12:50;;;;;;;;;;;17.90;99.90;;;;;;5064236;28;19943;-74
2023/07/06 07:15:16;;;;;;;;;;;18.00;99.90;;;;;;5064176;28;20004;-73
2023/07/06 07:17:45;;;;;;;;;;;18.20;99.90;;;;;;5064004;28;19956;-73
2023/07/06 07:20:13;;;;;;;;;;;18.20;99.90;;;;;;5064044;28;19921;-72
2023/07/06 07:22:40;;;;;;;;;;;18.30;99.90;;;;;;5063798;28;19921;-73
2023/07/06 07:25:07;;;;;;;;;;;18.40;99.90;;;;;;5064113;28;19921;-75
2023/07/06 07:27:35;;;;;;;;;;;18.40;99.90;;;;;;5064174;28;20147;-73
2023/07/06 07:30:04;;;;;;;;;;;18.40;99.90;;;;;;5063912;28;19943;-73
2023/07/06 07:32:31;;;;;;;;;;;18.40;99.90;;;;;;5063891;28;19921;-73
2023/07/06 07:34:58;;;;;;;;;;;18.40;99.90;;;;;;5063920;28;19959;-74
2023/07/06 07:37:25;;;;;;;;;;;18.50;99.90;;;;;;5063973;28;19921;-74
2023/07/06 07:39:52;;;;;;;;;;;18.60;99.90;;;;;;5049791;28;19921;-73
2023/07/06 07:42:19;;;;;;;;;;;18.70;99.90;;;;;;5043847;28;19963;-73
2023/07/06 07:44:46;;;;;;;;;;;18.80;99.90;;;;;;5043716;28;19928;-73
2023/07/06 07:47:15;;;;;;;;;;;18.90;99.90;;;;;;5062270;28;19928;-73
2023/07/06 07:49:43;;;;;;;;;;;18.90;99.90;;;;;;5062603;28;19921;-72
2023/07/06 07:52:12;;;;;;;;;;;18.90;99.90;;;;;;5063523;28;19924;-73
2023/07/06 07:54:39;;;;;;;;;;;18.90;99.90;;;;;;5063512;28;19950;-73
2023/07/06 07:57:06;;;;;;;;;;;18.90;99.90;;;;;;5063687;28;19983;-73
2023/07/06 07:59:38;;;;;;;;;;;19.00;99.90;;;;;;5063126;28;19925;-73
2023/07/06 08:02:07;;;;;;;;;;;19.10;99.90;;;;;;5063674;28;19996;-72
2023/07/06 08:05:09;;;;;;;;;;;19.30;99.90;;;;;;5066956;28;19986;-73
2023/07/06 08:07:37;;;;;;;;;;;19.40;99.90;;;;;;5067543;28;19921;-72
2023/07/06 08:10:04;;;;;;;;;;;19.50;99.90;;;;;;5067355;28;20167;-73
2023/07/06 08:12:32;;;;;;;;;;;19.60;99.90;;;;;;5067710;28;19927;-74
2023/07/06 08:14:58;;;;;;;;;;;19.60;99.90;;;;;;5067311;28;19963;-73
2023/07/06 08:17:26;;;;;;;;;;;19.60;99.90;;;;;;5066889;28;20008;-73
2023/07/06 08:19:53;;;;;;;;;;;19.60;99.90;;;;;;5067076;28;19956;-73
2023/07/06 08:22:22;;;;;;;;;;;19.70;99.90;;;;;;5067557;28;19927;-73
2023/07/06 08:24:50;;;;;;;;;;;19.70;99.90;;;;;;5067414;28;19921;-73
2023/07/06 08:27:17;;;;;;;;;;;19.80;99.90;;;;;;5067264;28;19984;-73
2023/07/06 08:30:16;;;;;;;;;;;19.90;99.90;;;;;;5066621;28;19975;-74
2023/07/06 08:32:43;;;;;;;;;;;20.00;99.90;;;;;;5065329;28;19987;-72
2023/07/06 08:35:10;;;;;;;;;;;20.10;99.90;;;;;;5046922;28;19928;-73
2023/07/06 08:37:37;;;;;;;;;;;20.10;99.90;;;;;;5048674;28;19921;-73
2023/07/06 08:40:09;;;;;;;;;;;20.20;99.90;;;;;;5050431;28;20260;-74
2023/07/06 08:42:36;;;;;;;;;;;20.20;99.90;;;;;;5046880;28;19992;-74
2023/07/06 08:45:03;;;;;;;;;;;20.20;99.90;;;;;;5047121;28;19963;-73
2023/07/06 08:47:30;;;;;;;;;;;20.30;99.90;;;;;;5067125;28;19999;-73
2023/07/06 08:49:59;;;;;;;;;;;20.40;99.90;;;;;;5066895;28;20157;-73
2023/07/06 08:52:26;;;;;;;;;;;20.50;99.90;;;;;;5066956;28;19921;-73
2023/07/06 08:54:53;;;;;;;;;;;20.50;99.90;;;;;;5066634;28;19920;-73
2023/07/06 08:57:22;;;;;;;;;;;20.50;99.90;;;;;;5066839;28;19983;-73
2023/07/06 08:59:50;;;;;;;;;;;20.50;99.90;;;;;;5066490;28;19927;-74
2023/07/06 09:02:18;;;;;;;;;;;20.50;99.90;;;;;;5066388;28;20284;-73
2023/07/06 09:04:46;;;;;;;;;;;20.50;99.90;;;;;;5066054;28;19921;-73
2023/07/06 09:07:15;;;;;;;;;;;20.60;99.90;;;;;;5067115;28;19943;-73
2023/07/06 09:09:42;;;;;;;;;;;20.70;99.90;;;;;;5066839;28;19955;-74
2023/07/06 09:12:14;;;;;;;;;;;20.70;99.90;;;;;;5066176;28;19925;-74
2023/07/06 09:14:43;;;;;;;;;;;20.70;99.90;;;;;;5065220;28;19921;-75
2023/07/06 09:17:25;;;;;;;;;;;20.80;99.90;;;;;;5067596;28;19924;-77
2023/07/06 09:19:52;;;;;;;;;;;20.90;99.90;;;;;;5064609;28;20258;-74
2023/07/06 09:22:21;;;;;;;;;;;21.00;99.90;;;;;;5066687;28;19921;-73
2023/07/06 09:24:48;;;;;;;;;;;21.10;99.90;;;;;;5066681;28;20208;-75
2023/07/06 09:27:17;;;;;;;;;;;21.30;99.90;;;;;;5067174;28;19992;-73
2023/07/06 09:29:56;;;;;;;;;;;21.40;99.90;;;;;;5066964;28;19952;-73
2023/07/06 09:32:23;;;;;;;;;;;21.50;99.90;;;;;;5067085;28;19970;-74
2023/07/06 09:34:51;;;;;;;;;;;21.60;99.90;;;;;;5066484;28;20230;-74
2023/07/06 09:37:19;;;;;;;;;;;21.50;99.90;;;;;;5066480;28;19921;-73
2023/07/06 09:39:57;;;;;;;;;;;21.50;99.90;;;;;;5066339;28;19921;-73
2023/07/06 09:42:25;;;;;;;;;;;21.50;99.90;;;;;;5066776;28;19920;-74
2023/07/06 09:44:53;;;;;;;;;;;21.40;99.90;;;;;;5066685;28;19928;-73
2023/07/06 09:47:20;;;;;;;;;;;21.40;99.90;;;;;;5066784;28;19929;-73
2023/07/06 09:49:48;;;;;;;;;;;21.50;99.90;;;;;;5066924;28;19944;-74
2023/07/06 09:52:17;;;;;;;;;;;21.50;99.90;;;;;;5066215;28;19987;-74
2023/07/06 09:54:49;;;;;;;;;;;21.50;99.90;;;;;;5066616;28;19920;-73
2023/07/06 09:57:16;;;;;;;;;;;21.50;99.90;;;;;;5065859;28;20246;-73
2023/07/06 09:59:43;;;;;;;;;;;21.60;99.90;;;;;;5065737;28;19971;-74
2023/07/06 10:02:19;;;;;;;;;;;21.80;99.90;;;;;;5065472;28;19925;-74
2023/07/06 10:04:57;;;;;;;;;;;21.90;99.90;;;;;;5065306;28;19942;-73
2023/07/06 10:07:29;;;;;;;;;;;21.90;99.90;;;;;;5065637;28;19921;-73
2023/07/06 10:09:59;;;;;;;;;;;22.00;99.90;;;;;;5065281;28;19991;-73
2023/07/06 10:12:28;;;;;;;;;;;22.00;99.90;;;;;;5065249;28;19988;-74
2023/07/06 10:14:54;;;;;;;;;;;21.80;99.90;;;;;;5065258;28;19956;-74
2023/07/06 10:17:37;;;;;;;;;;;21.80;99.90;;;;;;5066074;28;19921;-73
2023/07/06 10:20:08;;;;;;;;;;;21.90;99.90;;;;;;5065997;28;19920;-75
2023/07/06 10:22:40;;;;;;;;;;;22.00;99.90;;;;;;5066505;28;19975;-74
2023/07/06 10:25:17;;;;;;;;;;;22.00;99.90;;;;;;5065499;28;19921;-72
2023/07/06 10:27:45;;;;;;;;;;;22.00;99.90;;;;;;5063231;28;19982;-73
2023/07/06 10:30:16;;;;;;;;;;;22.00;99.90;;;;;;5064356;28;19992;-73
2023/07/06 10:32:47;;;;;;;;;;;22.00;99.90;;;;;;5065696;28;19943;-74
2023/07/06 10:35:17;;;;;;;;;;;22.00;99.90;;;;;;5065140;28;19920;-74
2023/07/06 10:37:44;;;;;;;;;;;21.90;99.90;;;;;;5065586;28;19920;-73
2023/07/06 10:43:38;;;;;;;;;;;22.00;99.90;;;;;;5035093;28;19984;-73
2023/07/06 10:46:26;;;;;;;;;;;22.30;99.90;;;;;;5065161;28;19927;-73
2023/07/06 10:48:56;;;;;;;;;;;22.40;99.90;;;;;;5064972;28;20267;-74
2023/07/06 10:51:24;;;;;;;;;;;22.40;99.90;;;;;;5064926;28;19948;-73
2023/07/06 10:54:05;;;;;;;;;;;22.40;99.90;;;;;;5065161;28;20136;-73
2023/07/06 10:56:50;;;;;;;;;;;22.50;99.90;;;;;;5064834;28;20151;-74
2023/07/06 10:59:36;;;;;;;;;;;22.70;99.90;;;;;;5064658;28;19925;-73
2023/07/06 11:02:12;;;;;;;;;;;23.00;99.90;;;;;;5064626;28;19958;-73
2023/07/06 11:05:01;;;;;;;;;;;23.20;99.90;;;;;;5064874;28;19929;-73
2023/07/06 11:07:41;;;;;;;;;;;23.30;99.90;;;;;;5061013;28;19952;-73
2023/07/06 11:10:25;;;;;;;;;;;23.30;99.80;;;;;;5064456;28;19921;-74
2023/07/06 11:12:54;;;;;;;;;;;23.20;99.60;;;;;;5064636;28;19986;-74
2023/07/06 11:15:21;;;;;;;;;;;23.10;99.40;;;;;;5064475;28;20123;-73
2023/07/06 11:17:50;;;;;;;;;;;23.20;99.90;;;;;;5064358;28;19921;-74
2023/07/06 11:20:19;;;;;;;;;;;23.40;99.50;;;;;;5064164;28;19921;-73
2023/07/06 11:22:51;;;;;;;;;;;23.70;99.60;;;;;;5063846;28;19927;-74
2023/07/06 11:25:19;;;;;;;;;;;24.00;98.10;;;;;;5064180;28;19956;-74
2023/07/06 11:27:50;;;;;;;;;;;24.20;98.60;;;;;;5062926;28;20148;-73
2023/07/06 11:30:22;;;;;;;;;;;24.30;96.20;;;;;;5063702;28;20205;-73
2023/07/06 11:33:01;;;;;;;;;;;24.30;95.60;;;;;;5063766;28;20093;-73
2023/07/06 11:35:35;;;;;;;;;;;24.30;95.50;;;;;;5063619;28;20151;-74
2023/07/06 11:38:13;;;;;;;;;;;24.50;93.80;;;;;;5063258;28;19952;-73
2023/07/06 11:40:46;;;;;;;;;;;24.80;92.70;;;;;;5063349;28;19963;-74
2023/07/06 11:43:30;;;;;;;;;;;25.10;93.00;;;;;;5063587;28;19980;-75
2023/07/06 11:46:02;;;;;;;;;;;25.30;92.50;;;;;;5063626;28;19988;-73
2023/07/06 11:48:34;;;;;;;;;;;25.50;90.30;;;;;;5063904;28;19920;-73
2023/07/06 11:51:01;;;;;;;;;;;25.60;90.00;;;;;;5063828;28;19987;-73
2023/07/06 11:53:57;;;;;;;;;;;25.80;86.50;;;;;;5063894;28;19952;-76
2023/07/06 11:56:39;;;;;;;;;;;26.00;89.40;;;;;;5063613;28;19928;-75
2023/07/06 11:59:36;;;;;;;;;;;26.20;91.00;;;;;;5063927;28;19921;-74
2023/07/06 12:02:07;;;;;;;;;;;26.20;90.50;;;;;;5063617;28;19928;-73
2023/07/06 12:04:34;;;;;;;;;;;26.10;90.40;;;;;;5063821;28;19921;-73
2023/07/06 12:07:08;;;;;;;;;;;25.80;89.40;;;;;;5063415;28;19928;-74
2023/07/06 12:09:37;;;;;;;;;;;25.50;89.60;;;;;;5063654;28;19928;-73
2023/07/06 12:12:06;;;;;;;;;;;25.60;90.80;;;;;;5063437;28;19988;-73
2023/07/06 12:14:34;;;;;;;;;;;25.70;90.00;;;;;;5063377;28;19920;-74
2023/07/06 12:17:02;;;;;;;;;;;26.00;88.60;;;;;;5063475;28;19927;-74
2023/07/06 12:19:30;;;;;;;;;;;26.10;87.30;;;;;;5063556;28;19921;-74
2023/07/06 12:21:58;;;;;;;;;;;26.10;85.00;;;;;;5063016;28;20231;-73
2023/07/06 12:24:25;;;;;;;;;;;26.20;87.20;;;;;;5063559;28;19928;-75
2023/07/06 12:26:53;;;;;;;;;;;26.50;85.70;;;;;;5063440;28;19992;-74
2023/07/06 12:29:23;;;;;;;;;;;26.40;84.50;;;;;;5063183;28;19921;-73
2023/07/06 12:31:51;;;;;;;;;;;26.60;83.10;;;;;;5063364;28;19925;-74
2023/07/06 12:34:19;;;;;;;;;;;26.80;81.80;;;;;;5063472;28;19921;-73
2023/07/06 12:36:49;;;;;;;;;;;27.00;84.00;;;;;;5063419;28;19928;-74
2023/07/06 12:39:18;;;;;;;;;;;27.20;82.20;;;;;;5063484;28;19985;-75
2023/07/06 12:41:44;;;;;;;;;;;27.50;82.00;;;;;;5063140;28;19924;-74
2023/07/06 12:44:14;;;;;;;;;;;27.50;79.40;;;;;;5063223;28;19933;-74
2023/07/06 12:46:47;;;;;;;;;;;27.60;81.10;;;;;;5063048;28;20239;-74
2023/07/06 12:49:20;;;;;;;;;;;27.70;80.70;;;;;;5045439;28;19921;-74
2023/07/06 12:51:47;;;;;;;;;;;27.60;78.30;;;;;;5046683;28;19980;-74
2023/07/06 12:54:14;;;;;;;;;;;27.70;81.80;;;;;;5064685;28;19988;-73
2023/07/06 12:56:41;;;;;;;;;;;27.70;78.40;;;;;;5066957;28;19979;-75
2023/07/06 12:59:23;;;;;;;;;;;27.60;76.20;;;;;;5066561;28;19955;-74
2023/07/06 13:01:52;;;;;;;;;;;27.30;77.50;;;;;;5066712;28;19927;-73
2023/07/06 13:04:19;;;;;;;;;;;26.90;76.40;;;;;;5046966;28;19921;-73
2023/07/06 13:06:46;;;;;;;;;;;26.70;77.20;;;;;;5047088;28;19922;-73
2023/07/06 13:09:14;;;;;;;;;;;26.40;79.10;;;;;;5045493;28;19921;-73
2023/07/06 13:11:43;;;;;;;;;;;26.20;77.50;;;;;;5063853;28;19983;-74
2023/07/06 13:14:15;;;;;;;;;;;26.30;80.20;;;;;;5066842;28;19948;-74
2023/07/06 13:16:42;;;;;;;;;;;26.60;80.10;;;;;;5047228;28;20240;-74
2023/07/06 13:19:11;;;;;;;;;;;27.00;78.90;;;;;;5063597;28;20173;-74
2023/07/06 13:21:40;;;;;;;;;;;27.30;78.90;;;;;;5066964;28;19993;-73
2023/07/06 13:24:10;;;;;;;;;;;27.30;78.50;;;;;;5067003;28;19924;-75
2023/07/06 13:26:37;;;;;;;;;;;27.20;79.00;;;;;;5066967;28;20151;-74
2023/07/06 13:29:05;;;;;;;;;;;27.20;79.30;;;;;;5066489;28;19956;-74
2023/07/06 13:31:54;;;;;;;;;;;27.10;77.30;;;;;;5066771;28;19983;-76
2023/07/06 13:34:38;;;;;;;;;;;27.00;78.30;;;;;;5066131;28;19927;-75
2023/07/06 13:37:11;;;;;;;;;;;27.10;79.30;;;;;;5066587;28;19928;-74
2023/07/06 13:39:45;;;;;;;;;;;27.10;78.90;;;;;;5066420;28;19983;-74
2023/07/06 13:42:13;;;;;;;;;;;26.80;78.60;;;;;;5065634;28;19992;-73
2023/07/06 13:44:40;;;;;;;;;;;26.60;78.60;;;;;;5065515;28;19958;-72
2023/07/06 13:47:11;;;;;;;;;;;26.60;77.90;;;;;;5066158;28;19921;-72
2023/07/06 13:49:40;;;;;;;;;;;26.90;79.40;;;;;;5065966;28;19983;-73
2023/07/06 13:52:07;;;;;;;;;;;27.30;78.90;;;;;;5065564;28;19921;-73
2023/07/06 13:54:34;;;;;;;;;;;27.30;76.70;;;;;;5065785;28;19927;-75
2023/07/06 13:57:00;;;;;;;;;;;27.30;77.40;;;;;;5065620;28;20180;-72
2023/07/06 13:59:28;;;;;;;;;;;27.10;76.70;;;;;;5065404;28;20205;-73
2023/07/06 14:01:56;;;;;;;;;;;27.10;79.70;;;;;;5065023;28;19984;-76
2023/07/06 14:04:23;;;;;;;;;;;27.40;78.60;;;;;;5065396;28;19979;-75
2023/07/06 14:06:51;;;;;;;;;;;27.30;75.60;;;;;;5064900;28;19963;-75
2023/07/06 14:09:18;;;;;;;;;;;27.10;78.30;;;;;;5059656;28;19935;-75
2023/07/06 14:11:45;;;;;;;;;;;27.00;77.70;;;;;;5055617;28;20000;-75
2023/07/06 14:14:12;;;;;;;;;;;26.70;76.70;;;;;;5064975;28;19927;-75
2023/07/06 14:16:39;;;;;;;;;;;26.40;77.30;;;;;;5065056;28;19984;-75
2023/07/06 14:19:06;;;;;;;;;;;26.60;79.70;;;;;;5062188;28;19928;-75
2023/07/06 14:21:34;;;;;;;;;;;26.60;77.70;;;;;;5060288;28;19921;-74
2023/07/06 14:24:04;;;;;;;;;;;26.50;77.40;;;;;;5054823;28;19963;-77
2023/07/06 14:26:31;;;;;;;;;;;26.70;77.00;;;;;;5064949;28;19975;-75
2023/07/06 14:28:57;;;;;;;;;;;26.70;77.40;;;;;;5065106;28;19921;-76
2023/07/06 14:31:27;;;;;;;;;;;26.70;77.40;;;;;;5064170;28;20255;-76
2023/07/06 14:33:53;;;;;;;;;;;26.60;77.90;;;;;;5055403;28;20112;-77